createdAt,value
2022-10-27T00:00:50.185Z,99852.56
2022-10-27T00:03:18.763Z,99843.63
2022-10-27T00:05:47.816Z,99843.63
2022-10-27T00:08:21.075Z,99841.25
2022-10-27T00:11:03.521Z,99848.38
2022-10-27T00:13:31.231Z,99838.03
2022-10-27T00:15:59.711Z,99843.34
2022-10-27T00:18:26.991Z,99845.31
2022-10-27T00:21:06.129Z,99846.16
2022-10-27T00:23:33.788Z,99848.94
2022-10-27T00:26:01.454Z,99852.56
2022-10-27T00:28:29.326Z,99849.94
2022-10-27T00:31:04.586Z,99837.78
2022-10-27T00:33:31.905Z,99846.03
2022-10-27T00:36:06.730Z,99843.91
2022-10-27T00:38:34.175Z,99847.56
2022-10-27T00:41:02.262Z,99843.09
2022-10-27T00:43:35.344Z,99843.09
2022-10-27T00:46:16.993Z,99842.22
2022-10-27T00:48:44.168Z,99841.00
2022-10-27T00:51:16.415Z,99839.16
2022-10-27T00:53:43.898Z,99838.03
2022-10-27T00:56:11.389Z,99846.56
2022-10-27T00:58:39.009Z,99842.66
2022-10-27T01:01:06.490Z,99846.13
2022-10-27T01:03:34.220Z,99841.09
2022-10-27T01:06:01.721Z,99839.28
2022-10-27T01:08:29.157Z,99850.69
2022-10-27T01:10:56.195Z,99835.50
2022-10-27T01:13:24.891Z,99841.34
2022-10-27T01:16:02.038Z,99836.97
2022-10-27T01:18:35.120Z,99840.19
2022-10-27T01:21:24.995Z,99837.66
2022-10-27T01:23:54.618Z,99833.44
2022-10-27T01:26:48.259Z,99829.81
2022-10-27T01:29:33.497Z,99834.25
2022-10-27T01:32:16.208Z,99827.34
2022-10-27T01:34:49.345Z,99824.41
2022-10-27T01:37:21.266Z,99823.13
2022-10-27T01:39:58.212Z,99819.53
2022-10-27T01:42:37.228Z,99820.94
2022-10-27T01:45:08.202Z,99812.00
2022-10-27T01:47:36.678Z,99828.91
2022-10-27T01:50:05.221Z,99820.94
2022-10-27T01:52:49.809Z,99821.75
2022-10-27T01:56:00.248Z,99818.56
2022-10-27T01:58:51.501Z,99825.53
2022-10-27T02:01:18.517Z,99832.34
2022-10-27T02:03:48.544Z,99831.50
2022-10-27T02:06:31.917Z,99818.47
2022-10-27T02:09:15.111Z,99820.75
2022-10-27T02:11:47.078Z,99816.44
2022-10-27T02:14:14.495Z,99816.16
2022-10-27T02:16:47.628Z,99821.34
2022-10-27T02:19:25.729Z,99821.84
2022-10-27T02:21:55.655Z,99814.59
2022-10-27T02:24:23.192Z,99822.44
2022-10-27T02:27:02.831Z,99823.56
2022-10-27T02:32:30.055Z,99820.69
2022-10-27T02:34:58.344Z,99814.97
2022-10-27T02:43:01.291Z,99819.38
2022-10-27T02:56:25.412Z,99815.44
2022-10-27T02:58:52.399Z,99819.59
2022-10-27T03:04:03.583Z,99820.47
2022-10-27T03:06:30.609Z,99816.84
2022-10-27T03:08:57.550Z,99813.78
2022-10-27T03:14:08.663Z,99813.19
2022-10-27T03:16:35.621Z,99807.91
2022-10-27T03:19:02.559Z,99805.97
2022-10-27T03:21:29.485Z,99817.69
2022-10-27T03:23:56.373Z,99809.09
2022-10-27T03:29:08.051Z,99806.38
2022-10-27T03:31:34.910Z,99791.22
2022-10-27T03:39:30.831Z,99812.19
2022-10-27T03:41:57.798Z,99816.97
2022-10-27T03:44:24.698Z,99817.38
2022-10-27T03:49:35.728Z,99822.03
2022-10-27T03:52:02.746Z,99820.81
2022-10-27T03:57:15.562Z,99822.81
2022-10-27T03:59:42.488Z,99827.69
2022-10-27T04:02:09.558Z,99832.13
2022-10-27T04:07:20.845Z,99834.13
2022-10-27T04:12:32.198Z,99831.50
2022-10-27T04:14:59.171Z,99826.63
2022-10-27T04:17:26.066Z,99829.28
2022-10-27T04:22:37.325Z,99840.56
2022-10-27T04:25:04.711Z,99844.75
2022-10-27T04:30:15.887Z,99840.44
2022-10-27T04:32:42.820Z,99835.13
2022-10-27T04:40:44.472Z,99840.28
2022-10-27T04:43:11.500Z,99856.22
2022-10-27T04:48:23.273Z,99849.19
2022-10-27T04:50:52.667Z,99848.53
2022-10-27T04:53:19.667Z,99855.38
2022-10-27T04:55:46.545Z,99858.03
2022-10-27T04:58:13.558Z,99855.22
2022-10-27T05:00:40.587Z,99843.34
2022-10-27T05:05:53.098Z,99852.28
2022-10-27T05:08:20.034Z,99849.91
2022-10-27T05:10:47.171Z,99858.31
2022-10-27T05:13:14.094Z,99855.34
2022-10-27T05:15:41.135Z,99853.13
2022-10-27T05:18:10.203Z,99855.34
2022-10-27T05:20:38.024Z,99860.09
2022-10-27T05:25:55.257Z,99858.56
2022-10-27T05:28:22.839Z,99860.78
2022-10-27T05:30:49.858Z,99859.53
2022-10-27T05:33:16.826Z,99870.56
2022-10-27T05:41:15.837Z,99856.91
2022-10-27T05:43:42.834Z,99857.53
2022-10-27T05:46:09.941Z,99863.97
2022-10-27T05:48:36.983Z,99864.22
2022-10-27T05:56:36.549Z,99872.75
2022-10-27T06:01:47.967Z,99866.47
2022-10-27T06:04:15.045Z,99874.31
2022-10-27T06:06:41.954Z,99873.19
2022-10-27T06:09:08.886Z,99880.25
2022-10-27T06:11:35.864Z,99877.59
2022-10-27T06:14:02.746Z,99879.28
2022-10-27T06:16:29.699Z,99881.78
2022-10-27T06:18:57.135Z,99889.03
2022-10-27T06:21:24.058Z,99894.06
2022-10-27T06:23:51.184Z,99892.78
2022-10-27T06:31:46.526Z,99885.66
2022-10-27T06:34:13.418Z,99890.97
2022-10-27T06:36:40.424Z,99894.06
2022-10-27T06:39:07.338Z,99894.47
2022-10-27T06:41:34.189Z,99892.19
2022-10-27T06:44:01.180Z,99895.34
2022-10-27T06:46:28.091Z,99903.47
2022-10-27T06:48:54.969Z,99895.41
2022-10-27T06:51:21.973Z,99906.44
2022-10-27T06:53:49.011Z,99903.81
2022-10-27T06:56:15.942Z,99900.66
2022-10-27T06:58:42.786Z,99903.19
2022-10-27T07:01:09.911Z,99904.53
2022-10-27T07:03:38.181Z,99900.81
2022-10-27T07:06:05.718Z,99903.38
2022-10-27T07:19:30.546Z,99912.31
2022-10-27T07:27:25.960Z,99918.00
2022-10-27T07:35:22.305Z,99922.81
2022-10-27T07:40:34.937Z,99930.13
2022-10-27T07:43:10.280Z,99935.31
2022-10-27T07:45:38.989Z,99929.59
2022-10-27T07:56:21.237Z,99920.75
2022-10-27T07:58:49.658Z,99914.31
2022-10-27T08:01:16.709Z,99923.56
2022-10-27T08:03:45.232Z,99917.22
2022-10-27T08:06:14.521Z,99925.09
2022-10-27T08:11:26.183Z,99917.28
2022-10-27T08:13:53.949Z,99919.13
2022-10-27T08:16:20.984Z,99926.63
2022-10-27T08:18:47.979Z,99922.34
2022-10-27T08:21:14.993Z,99920.50
2022-10-27T08:23:43.092Z,99918.66
2022-10-27T08:26:10.112Z,99916.31
2022-10-27T08:28:37.625Z,99920.81
2022-10-27T08:31:04.481Z,99925.00
2022-10-27T08:33:31.361Z,99925.16
2022-10-27T08:36:01.088Z,99915.81
2022-10-27T08:41:24.111Z,99919.47
2022-10-27T08:43:59.886Z,99921.63
2022-10-27T08:46:40.838Z,99929.34
2022-10-27T08:49:28.308Z,99923.81
2022-10-27T08:52:06.492Z,99922.66
2022-10-27T08:54:33.618Z,99936.00
2022-10-27T08:57:03.546Z,99919.94
2022-10-27T08:59:31.963Z,99925.72
2022-10-27T09:05:26.566Z,99932.84
2022-10-27T09:08:04.644Z,99926.13
2022-10-27T09:10:46.962Z,99926.72
2022-10-27T09:16:40.093Z,99938.94
2022-10-27T09:19:13.963Z,99935.09
2022-10-27T09:21:43.559Z,99930.84
2022-10-27T09:24:17.812Z,99930.00
2022-10-27T09:26:47.123Z,99933.19
2022-10-27T09:29:27.874Z,99922.84
2022-10-27T09:35:02.343Z,99931.41
2022-10-27T09:37:40.823Z,99917.56
2022-10-27T09:42:57.712Z,99926.81
2022-10-27T09:45:28.740Z,99929.16
2022-10-27T09:51:15.781Z,99939.22
2022-10-27T09:56:38.455Z,99937.41
2022-10-27T09:59:06.620Z,99936.94
2022-10-27T10:10:31.238Z,99942.78
2022-10-27T10:13:04.382Z,99944.84
2022-10-27T10:18:28.972Z,99943.22
2022-10-27T10:20:59.565Z,99951.63
2022-10-27T10:26:27.329Z,99947.38
2022-10-27T10:34:33.347Z,99958.56
2022-10-27T10:37:00.788Z,99961.56
2022-10-27T10:39:29.950Z,99959.94
2022-10-27T10:45:22.555Z,99957.94
2022-10-27T10:48:00.060Z,99956.41
2022-10-27T10:50:28.676Z,99958.63
2022-10-27T10:55:43.857Z,99959.81
2022-10-27T11:01:07.504Z,99956.13
2022-10-27T11:03:40.439Z,99961.97
2022-10-27T11:06:17.653Z,99974.91
2022-10-27T11:08:52.101Z,99973.56
2022-10-27T11:11:22.400Z,99966.72
2022-10-27T11:16:36.108Z,99968.03
2022-10-27T11:19:15.499Z,99974.03
2022-10-27T11:24:47.959Z,99975.34
2022-10-27T11:27:29.079Z,99978.16
2022-10-27T11:33:01.131Z,99976.66
2022-10-27T11:35:41.240Z,99973.69
2022-10-27T11:38:40.241Z,99976.13
2022-10-27T11:41:18.477Z,99971.56
2022-10-27T11:44:14.637Z,99973.88
2022-10-27T11:49:48.046Z,99973.94
2022-10-27T11:52:29.126Z,99974.28
2022-10-27T11:54:57.469Z,99970.28
2022-10-27T12:03:28.247Z,99977.91
2022-10-27T12:06:10.345Z,99975.19
2022-10-27T12:08:45.960Z,99980.53
2022-10-27T12:11:18.260Z,99977.53
2022-10-27T12:14:06.538Z,99984.97
2022-10-27T12:16:42.618Z,99983.09
2022-10-27T12:22:50.724Z,99988.00
2022-10-27T12:25:34.408Z,99996.47
2022-10-27T12:28:06.887Z,99996.47
2022-10-27T12:30:34.108Z,99991.84
2022-10-27T12:33:04.245Z,99991.97
2022-10-27T12:36:09.618Z,99993.56
2022-10-27T12:42:11.908Z,100000.03
2022-10-27T12:44:44.664Z,99997.84
2022-10-27T12:47:36.669Z,99997.06
2022-10-27T12:50:25.486Z,100002.75
2022-10-27T12:53:15.750Z,100001.16
2022-10-27T12:56:13.695Z,100001.16
2022-10-27T12:58:46.427Z,100018.03
2022-10-27T13:01:44.542Z,100015.13
2022-10-27T13:07:27.007Z,100021.56
2022-10-27T13:10:19.487Z,100015.56
2022-10-27T13:13:04.373Z,100012.41
2022-10-27T13:15:46.501Z,100019.16
2022-10-27T13:18:32.168Z,100020.50
2022-10-27T13:21:24.205Z,100019.41
2022-10-27T13:24:06.371Z,100019.59
2022-10-27T13:26:52.201Z,100021.94
2022-10-27T13:29:50.349Z,100020.28
2022-10-27T13:32:20.300Z,100023.09
2022-10-27T13:35:02.591Z,100025.34
2022-10-27T13:40:38.159Z,100020.41
2022-10-27T13:46:08.509Z,100029.56
2022-10-27T13:48:35.665Z,100027.44
2022-10-27T13:51:48.668Z,100034.66
2022-10-27T13:54:56.357Z,100046.75
2022-10-27T13:57:52.306Z,100042.38
2022-10-27T14:05:59.835Z,100049.69
2022-10-27T14:08:31.793Z,100042.72
2022-10-27T14:11:10.274Z,100039.84
2022-10-27T14:13:44.853Z,100045.44
2022-10-27T14:16:26.724Z,100053.59
2022-10-27T14:19:04.305Z,100056.00
2022-10-27T14:27:24.572Z,100062.59
2022-10-27T14:32:37.418Z,100060.53
2022-10-27T14:35:29.175Z,100071.03
2022-10-27T14:37:58.095Z,100066.66
2022-10-27T14:40:40.717Z,100059.28
2022-10-27T14:43:20.228Z,100068.19
2022-10-27T14:46:01.981Z,100063.59
2022-10-27T14:48:31.920Z,100063.53
2022-10-27T14:51:10.559Z,100058.31
2022-10-27T14:56:30.793Z,100071.56
2022-10-27T14:59:03.527Z,100074.28
2022-10-27T15:01:50.952Z,100069.66
2022-10-27T15:04:20.849Z,100081.69
2022-10-27T15:06:49.244Z,100072.44
2022-10-27T15:09:34.237Z,100081.13
2022-10-27T15:12:19.170Z,100080.84
2022-10-27T15:14:47.409Z,100085.75
2022-10-27T15:17:16.889Z,100072.44
2022-10-27T15:19:49.417Z,100072.88
2022-10-27T15:22:18.707Z,100081.72
2022-10-27T15:24:46.351Z,100074.72
2022-10-27T15:27:13.630Z,100082.44
2022-10-27T15:29:42.878Z,100073.38
2022-10-27T15:32:32.762Z,100083.88
2022-10-27T15:34:59.750Z,100091.31
2022-10-27T15:40:29.534Z,100089.63
2022-10-27T15:42:57.904Z,100095.69
2022-10-27T15:45:30.101Z,100103.78
2022-10-27T15:47:58.552Z,100104.06
2022-10-27T15:50:31.618Z,100098.63
2022-10-27T15:53:20.427Z,100100.00
2022-10-27T15:56:22.821Z,100104.34
2022-10-27T16:02:35.162Z,100106.84
2022-10-27T16:05:30.049Z,100104.34
2022-10-27T16:08:20.731Z,100104.34
2022-10-27T16:10:51.901Z,100111.44
2022-10-27T16:13:21.529Z,100101.66
2022-10-27T16:15:49.786Z,100106.16
2022-10-27T16:18:20.483Z,100110.91
2022-10-27T16:20:47.503Z,100109.25
2022-10-27T16:23:16.034Z,100116.06
2022-10-27T16:25:45.359Z,100122.63
2022-10-27T16:28:18.931Z,100123.63
2022-10-27T16:30:46.277Z,100124.56
2022-10-27T16:33:17.400Z,100127.94
2022-10-27T16:35:44.851Z,100132.16
2022-10-27T16:38:12.093Z,100127.38
2022-10-27T16:40:42.255Z,100137.47
2022-10-27T16:43:52.818Z,100132.41
2022-10-27T16:46:19.924Z,100129.06
2022-10-27T16:51:32.297Z,100129.34
2022-10-27T16:53:59.361Z,100119.97
2022-10-27T16:56:27.104Z,100136.06
2022-10-27T16:58:54.212Z,100132.16
2022-10-27T17:04:07.086Z,100133.56
2022-10-27T17:06:34.303Z,100138.19
2022-10-27T17:09:01.433Z,100134.41
2022-10-27T17:11:28.503Z,100132.88
2022-10-27T17:13:55.654Z,100136.63
2022-10-27T17:16:22.799Z,100133.56
2022-10-27T17:18:50.018Z,100119.97
2022-10-27T17:21:17.196Z,100128.50
2022-10-27T17:23:45.768Z,100124.84
2022-10-27T17:26:13.986Z,100127.13
2022-10-27T17:28:41.898Z,100123.47
2022-10-27T17:31:12.039Z,100129.88
2022-10-27T17:33:39.842Z,100129.59
2022-10-27T17:38:40.313Z,100115.63
2022-10-27T17:41:09.296Z,100117.59
2022-10-27T17:43:37.531Z,100130.44
2022-10-27T17:46:22.311Z,100137.84
2022-10-27T17:48:54.969Z,100150.28
2022-10-27T17:51:24.386Z,100145.25
2022-10-27T17:53:52.687Z,100143.88
2022-10-27T17:56:29.744Z,100152.13
2022-10-27T17:58:56.869Z,100141.94
2022-10-27T18:01:27.451Z,100151.84
2022-10-27T18:03:56.434Z,100154.66
2022-10-27T18:06:25.412Z,100149.88
2022-10-27T18:08:58.435Z,100153.22
2022-10-27T18:11:28.402Z,100156.72
2022-10-27T18:14:02.792Z,100158.41
2022-10-27T18:16:32.982Z,100153.22
2022-10-27T18:19:05.313Z,100150.03
2022-10-27T18:21:35.562Z,100155.22
2022-10-27T18:24:03.785Z,100160.91
2022-10-27T18:26:34.643Z,100165.13
2022-10-27T18:29:02.301Z,100163.31
2022-10-27T18:31:36.376Z,100169.59
2022-10-27T18:34:05.445Z,100170.16
2022-10-27T18:36:33.418Z,100176.72
2022-10-27T18:39:01.512Z,100176.00
2022-10-27T18:41:31.650Z,100173.78
2022-10-27T18:46:43.615Z,100186.34
2022-10-27T18:49:15.922Z,100184.97
2022-10-27T18:51:47.634Z,100172.25
2022-10-27T18:54:17.529Z,100183.00
2022-10-27T18:56:44.648Z,100192.09
2022-10-27T18:59:13.387Z,100188.50
2022-10-27T19:01:42.731Z,100182.91
2022-10-27T19:04:10.133Z,100184.44
2022-10-27T19:06:38.341Z,100174.09
2022-10-27T19:09:05.824Z,100184.03
2022-10-27T19:11:35.175Z,100182.22
2022-10-27T19:14:03.002Z,100186.44
2022-10-27T19:16:31.066Z,100182.63
2022-10-27T19:18:59.140Z,100188.81
2022-10-27T19:21:26.854Z,100181.38
2022-10-27T19:23:56.505Z,100180.84
2022-10-27T19:26:26.636Z,100180.69
2022-10-27T19:31:40.456Z,100185.00
2022-10-27T19:34:10.151Z,100187.25
2022-10-27T19:36:38.149Z,100183.47
2022-10-27T19:39:07.409Z,100181.06
2022-10-27T19:41:36.618Z,100181.88
2022-10-27T19:44:04.723Z,100185.53
2022-10-27T19:46:32.713Z,100176.13
2022-10-27T19:49:01.442Z,100185.78
2022-10-27T19:51:31.712Z,100185.38
2022-10-27T19:53:59.837Z,100182.28
2022-10-27T19:56:28.996Z,100184.41
2022-10-27T20:01:51.826Z,100191.28
2022-10-27T20:04:20.405Z,100188.91
2022-10-27T20:06:47.434Z,100179.94
2022-10-27T20:09:16.301Z,100177.13
2022-10-27T20:11:44.842Z,100173.78
2022-10-27T20:17:00.024Z,100170.59
2022-10-27T20:19:27.202Z,100175.19
2022-10-27T20:21:56.036Z,100169.16
2022-10-27T20:24:24.401Z,100176.13
2022-10-27T20:26:53.738Z,100173.03
2022-10-27T20:29:22.875Z,100174.34
2022-10-27T20:32:07.832Z,100169.75
2022-10-27T20:34:39.414Z,100179.41
2022-10-27T20:38:03.574Z,100180.81
2022-10-27T20:40:55.098Z,100187.94
2022-10-27T20:43:22.662Z,100190.88
2022-10-27T20:46:06.433Z,100192.56
2022-10-27T20:48:49.975Z,100174.91
2022-10-27T20:51:17.354Z,100180.50
2022-10-27T20:53:45.458Z,100179.38
2022-10-27T20:56:18.300Z,100187.63
2022-10-27T20:58:46.231Z,100176.28
2022-10-27T21:01:35.062Z,100172.63
2022-10-27T21:04:03.350Z,100175.69
2022-10-27T21:06:32.840Z,100171.91
2022-10-27T21:09:02.812Z,100166.72
2022-10-27T21:15:15.174Z,100166.44
2022-10-27T21:19:03.234Z,100164.75
2022-10-27T21:23:16.404Z,100171.88
2022-10-27T21:26:22.230Z,100173.72
2022-10-27T21:28:51.660Z,100167.31
2022-10-27T21:31:19.701Z,100173.44
2022-10-27T21:33:52.914Z,100157.81
2022-10-27T21:36:20.599Z,100159.63
2022-10-27T21:38:49.758Z,100169.41
2022-10-27T21:41:19.312Z,100170.13
2022-10-27T21:43:48.003Z,100162.59
2022-10-27T21:46:16.843Z,100156.88
2022-10-27T21:48:44.177Z,100167.38
2022-10-27T21:51:13.030Z,100160.66
2022-10-27T21:53:40.802Z,100153.69
2022-10-27T21:56:09.571Z,100153.41
2022-10-27T21:58:37.435Z,100154.25
2022-10-27T22:01:16.477Z,100161.53
2022-10-27T22:03:44.283Z,100165.88
2022-10-27T22:06:19.760Z,100156.50
2022-10-27T22:08:47.428Z,100166.13
2022-10-27T22:11:17.596Z,100160.13
2022-10-27T22:13:44.731Z,100159.84
2022-10-27T22:16:17.990Z,100168.13
2022-10-27T22:18:46.103Z,100165.44
2022-10-27T22:21:15.923Z,100167.28
2022-10-27T22:23:45.482Z,100166.84
2022-10-27T22:26:15.288Z,100155.22
2022-10-27T22:28:42.839Z,100163.47
2022-10-27T22:31:16.925Z,100158.44
2022-10-27T22:33:45.837Z,100168.69
2022-10-27T22:36:16.461Z,100167.69
2022-10-27T22:38:44.610Z,100152.31
2022-10-27T22:41:14.391Z,100171.03
2022-10-27T22:43:41.993Z,100178.44
2022-10-27T22:46:15.280Z,100178.56
2022-10-27T22:48:42.292Z,100180.66
2022-10-27T22:51:12.730Z,100175.75
2022-10-27T22:53:41.543Z,100178.13
2022-10-27T22:56:17.805Z,100176.59
2022-10-27T22:58:49.902Z,100183.16
2022-10-27T23:01:29.500Z,100176.75
2022-10-27T23:03:59.809Z,100186.38
2022-10-27T23:06:28.967Z,100180.78
2022-10-27T23:08:58.326Z,100181.91
2022-10-27T23:11:28.675Z,100179.69
2022-10-27T23:13:55.831Z,100180.22
2022-10-27T23:16:22.979Z,100179.94
2022-10-27T23:18:50.100Z,100183.31
2022-10-27T23:21:17.342Z,100179.66
2022-10-27T23:23:44.539Z,100188.63
2022-10-27T23:26:25.697Z,100182.03
2022-10-27T23:28:59.026Z,100186.53
2022-10-27T23:31:27.665Z,100181.31
2022-10-27T23:34:01.111Z,100174.34
2022-10-27T23:36:30.822Z,100174.22
2022-10-27T23:38:58.373Z,100179.97
2022-10-27T23:41:26.176Z,100179.25
2022-10-27T23:43:55.620Z,100173.22
2022-10-27T23:46:24.170Z,100170.88
2022-10-27T23:48:53.935Z,100168.19
2022-10-27T23:53:53.278Z,100167.34
2022-10-27T23:56:20.495Z,100165.94
2022-10-27T23:58:48.216Z,100169.59
